createdAt,value
2023-02-27T00:00:23.648Z,4.203
2023-02-27T00:01:22.701Z,4.198
2023-02-27T00:02:22.905Z,4.190
2023-02-27T00:03:22.890Z,4.199
2023-02-27T00:04:22.125Z,4.165
2023-02-27T00:05:22.444Z,4.164
2023-02-27T00:06:22.321Z,4.177
2023-02-27T00:07:22.852Z,4.165
2023-02-27T00:08:21.883Z,4.149
2023-02-27T00:09:22.075Z,4.137
2023-02-27T00:10:23.306Z,4.138
2023-02-27T00:11:22.378Z,4.131
2023-02-27T00:12:22.742Z,4.114
2023-02-27T00:13:22.075Z,4.120
2023-02-27T00:14:22.637Z,4.114
2023-02-27T00:15:22.594Z,4.137
2023-02-27T00:16:22.108Z,4.094
2023-02-27T00:17:22.239Z,4.065
2023-02-27T00:18:22.316Z,4.025
2023-02-27T00:19:22.385Z,4.005
2023-02-27T00:20:22.103Z,4
2023-02-27T00:21:23.044Z,4.019
2023-02-27T00:22:22.319Z,4.005
2023-02-27T00:23:21.800Z,3.990
2023-02-27T00:24:21.753Z,3.994
2023-02-27T00:25:41.419Z,3.970
2023-02-27T00:26:22.662Z,3.940
2023-02-27T00:27:22.521Z,3.940
2023-02-27T00:28:22.492Z,3.934
2023-02-27T00:29:21.900Z,3.920
2023-02-27T00:30:23.193Z,3.904
2023-02-27T00:31:22.455Z,3.894
2023-02-27T00:32:22.739Z,3.890
2023-02-27T00:33:21.804Z,3.904
2023-02-27T00:34:22.490Z,3.890
2023-02-27T00:35:22.277Z,3.849
2023-02-27T00:36:22.542Z,3.845
2023-02-27T00:37:22.254Z,3.805
2023-02-27T00:38:21.888Z,3.775
2023-02-27T00:39:22.709Z,3.775
2023-02-27T00:40:22.445Z,3.775
2023-02-27T00:41:22.681Z,3.789
2023-02-27T00:42:22.886Z,3.799
2023-02-27T00:43:22.512Z,3.815
2023-02-27T00:44:21.998Z,3.812
2023-02-27T00:45:21.979Z,3.795
2023-02-27T00:46:22.807Z,3.826
2023-02-27T00:47:21.907Z,3.809
2023-02-27T00:48:22.273Z,3.779
2023-02-27T00:49:21.994Z,3.785
2023-02-27T00:50:22.972Z,3.744
2023-02-27T00:51:22.542Z,3.734
2023-02-27T00:52:22.638Z,3.704
2023-02-27T00:53:22.464Z,3.740
2023-02-27T00:54:22.590Z,3.710
2023-02-27T00:55:22.665Z,3.683
2023-02-27T00:56:23.108Z,3.677
2023-02-27T00:57:21.748Z,3.627
2023-02-27T00:58:21.645Z,3.595
2023-02-27T00:59:21.755Z,3.599
2023-02-27T01:00:24.564Z,3.579
2023-02-27T01:01:26.423Z,3.559
2023-02-27T01:02:23.012Z,3.569
2023-02-27T01:03:21.951Z,3.589
2023-02-27T01:04:21.670Z,3.579
2023-02-27T01:05:22.690Z,3.595
2023-02-27T01:06:22.560Z,3.589
2023-02-27T01:07:22.762Z,3.595
2023-02-27T01:08:22.324Z,3.585
2023-02-27T01:09:22.068Z,3.585
2023-02-27T01:10:22.985Z,3.553
2023-02-27T01:11:21.996Z,3.541
2023-02-27T01:12:22.388Z,3.555
2023-02-27T01:13:22.115Z,3.519
2023-02-27T01:14:21.458Z,3.515
2023-02-27T01:15:22.959Z,3.538
2023-02-27T01:16:21.491Z,3.532
2023-02-27T01:17:22.544Z,3.565
2023-02-27T01:18:21.881Z,3.555
2023-02-27T01:19:22.092Z,3.550
2023-02-27T01:20:22.490Z,3.565
2023-02-27T01:21:22.522Z,3.550
2023-02-27T01:22:22.649Z,3.549
2023-02-27T01:23:22.405Z,3.525
2023-02-27T01:24:22.307Z,3.519
2023-02-27T01:25:22.663Z,3.5
2023-02-27T01:26:22.200Z,3.509
2023-02-27T01:27:22.311Z,3.509
2023-02-27T01:28:22.304Z,3.505
2023-02-27T01:29:21.933Z,3.515
2023-02-27T01:30:22.253Z,3.494
2023-02-27T01:31:21.786Z,3.460
2023-02-27T01:32:23.008Z,3.460
2023-02-27T01:33:21.832Z,3.474
2023-02-27T01:34:22.285Z,3.484
2023-02-27T01:35:22.646Z,3.454
2023-02-27T01:36:22.307Z,3.414
2023-02-27T01:37:22.532Z,3.380
2023-02-27T01:38:22.075Z,3.338
2023-02-27T01:39:22.251Z,3.345
2023-02-27T01:40:22.132Z,3.328
2023-02-27T01:41:21.779Z,3.305
2023-02-27T01:42:22.373Z,3.305
2023-02-27T01:43:21.812Z,3.289
2023-02-27T01:44:21.981Z,3.269
2023-02-27T01:45:22.186Z,3.279
2023-02-27T01:46:23.045Z,3.279
2023-02-27T01:47:22.230Z,3.275
2023-02-27T01:48:22.534Z,3.275
2023-02-27T01:49:22.054Z,3.265
2023-02-27T01:50:22.905Z,3.295
2023-02-27T01:51:22.627Z,3.285
2023-02-27T01:52:22.364Z,3.299
2023-02-27T01:53:22.021Z,3.255
2023-02-27T01:54:21.697Z,3.265
2023-02-27T01:55:22.308Z,3.265
2023-02-27T01:56:21.664Z,3.255
2023-02-27T01:57:22.423Z,3.230
2023-02-27T01:58:22.042Z,3.244
2023-02-27T01:59:22.497Z,3.240
2023-02-27T02:00:23.035Z,3.230
2023-02-27T02:01:23.073Z,3.210
2023-02-27T02:02:22.255Z,3.183
2023-02-27T02:03:22.143Z,3.154
2023-02-27T02:04:26.842Z,3.148
2023-02-27T02:05:22.928Z,3.160
2023-02-27T02:06:22.303Z,3.148
2023-02-27T02:07:22.273Z,3.160
2023-02-27T02:08:22.111Z,3.125
2023-02-27T02:09:21.862Z,3.125
2023-02-27T02:10:22.173Z,3.125
2023-02-27T02:11:22.264Z,3.142
2023-02-27T02:12:22.247Z,3.165
2023-02-27T02:13:21.874Z,3.160
2023-02-27T02:14:22.241Z,3.148
2023-02-27T02:15:23.101Z,3.148
2023-02-27T02:16:22.476Z,3.142
2023-02-27T02:17:22.090Z,3.154
2023-02-27T02:18:22.493Z,3.142
2023-02-27T02:19:21.664Z,3.137
2023-02-27T02:20:21.807Z,3.171
2023-02-27T02:21:22.286Z,3.165
2023-02-27T02:22:22.477Z,3.154
2023-02-27T02:23:21.950Z,3.154
2023-02-27T02:24:22.035Z,3.178
2023-02-27T02:25:22.339Z,3.154
2023-02-27T02:26:36.068Z,3.171
2023-02-27T02:27:22.641Z,3.190
2023-02-27T02:28:35.893Z,3.171
2023-02-27T02:29:22.182Z,3.184
2023-02-27T02:30:22.393Z,3.171
2023-02-27T02:31:22.372Z,3.178
2023-02-27T02:32:22.412Z,3.160
2023-02-27T02:33:22.283Z,3.164
2023-02-27T02:34:22.775Z,3.179
2023-02-27T02:35:22.317Z,3.170
2023-02-27T02:36:22.247Z,3.167
2023-02-27T02:37:21.637Z,3.142
2023-02-27T02:38:22.058Z,3.183
2023-02-27T02:39:22.122Z,3.173
2023-02-27T02:40:22.483Z,3.157
2023-02-27T02:41:22.605Z,3.171
2023-02-27T02:42:21.810Z,3.165
2023-02-27T02:43:21.833Z,3.154
2023-02-27T02:44:22.244Z,3.115
2023-02-27T02:45:22.476Z,3.109
2023-02-27T02:46:22.306Z,3.089
2023-02-27T02:47:22.520Z,3.079
2023-02-27T02:48:22.047Z,3.089
2023-02-27T02:49:22.752Z,3.075
2023-02-27T02:50:22.837Z,3.055
2023-02-27T02:51:22.403Z,3.065
2023-02-27T02:52:23.061Z,3.049
2023-02-27T02:53:22.105Z,3.019
2023-02-27T02:54:22.643Z,3.055
2023-02-27T02:55:22.039Z,3.059
2023-02-27T02:56:22.675Z,3.009
2023-02-27T02:57:22.229Z,3.015
2023-02-27T02:58:22.469Z,3.059
2023-02-27T02:59:23.038Z,3.055
2023-02-27T03:00:24.378Z,3.059
2023-02-27T03:01:22.588Z,3.005
2023-02-27T03:02:22.825Z,3.029
2023-02-27T03:03:22.401Z,3.049
2023-02-27T03:04:21.778Z,3.069
2023-02-27T03:05:22.672Z,3.065
2023-02-27T03:06:22.070Z,3.085
2023-02-27T03:07:22.487Z,3.095
2023-02-27T03:08:22.052Z,3.059
2023-02-27T03:09:22.575Z,3.049
2023-02-27T03:10:22.817Z,3.029
2023-02-27T03:11:22.278Z,3.009
2023-02-27T03:12:23.094Z,3.035
2023-02-27T03:13:21.471Z,3.035
2023-02-27T03:14:22.116Z,3.039
2023-02-27T03:15:21.811Z,3.029
2023-02-27T03:16:22.651Z,3.029
2023-02-27T03:17:22.508Z,3.025
2023-02-27T03:18:22.763Z,3.025
2023-02-27T03:19:22.072Z,3.005
2023-02-27T03:20:22.079Z,2.960
2023-02-27T03:21:22.711Z,2.954
2023-02-27T03:22:21.426Z,2.950
2023-02-27T03:23:22.232Z,2.944
2023-02-27T03:24:21.636Z,2.950
2023-02-27T03:25:21.845Z,2.954
2023-02-27T03:26:21.467Z,2.940
2023-02-27T03:27:21.668Z,2.950
2023-02-27T03:28:22.200Z,2.944
2023-02-27T03:29:22.143Z,2.934
2023-02-27T03:30:22.272Z,2.930
2023-02-27T03:31:21.843Z,2.910
2023-02-27T03:32:22.518Z,2.904
2023-02-27T03:33:21.784Z,2.890
2023-02-27T03:34:22.003Z,2.894
2023-02-27T03:35:22.086Z,2.878
2023-02-27T03:36:23.214Z,2.832
2023-02-27T03:37:22.156Z,2.815
2023-02-27T03:38:21.811Z,2.815
2023-02-27T03:39:22.532Z,2.805
2023-02-27T03:40:22.638Z,2.779
2023-02-27T03:41:22.427Z,2.75
2023-02-27T03:42:22.348Z,2.75
2023-02-27T03:43:21.984Z,2.765
2023-02-27T03:44:22.450Z,2.755
2023-02-27T03:45:22.716Z,2.734
2023-02-27T03:46:21.991Z,2.724
2023-02-27T03:47:22.474Z,2.755
2023-02-27T03:48:21.794Z,2.769
2023-02-27T03:49:21.673Z,2.775
2023-02-27T03:50:22.434Z,2.771
2023-02-27T03:51:22.466Z,2.75
2023-02-27T03:52:22.998Z,2.755
2023-02-27T03:53:21.556Z,2.763
2023-02-27T03:54:22.394Z,2.755
2023-02-27T03:55:22.215Z,2.755
2023-02-27T03:56:21.987Z,2.745
2023-02-27T03:57:22.243Z,2.766
2023-02-27T03:58:21.948Z,2.775
2023-02-27T03:59:22.021Z,2.775
2023-02-27T04:00:23.496Z,2.769
2023-02-27T04:01:23.037Z,2.730
2023-02-27T04:02:23.093Z,2.724
2023-02-27T04:03:22.416Z,2.734
2023-02-27T04:04:22.533Z,2.730
2023-02-27T04:05:22.100Z,2.710
2023-02-27T04:06:22.155Z,2.730
2023-02-27T04:07:22.124Z,2.714
2023-02-27T04:08:22.242Z,2.740
2023-02-27T04:09:22.544Z,2.720
2023-02-27T04:10:23.142Z,2.704
2023-02-27T04:11:23.118Z,2.700
2023-02-27T04:12:23.019Z,2.698
2023-02-27T04:13:22.357Z,2.689
2023-02-27T04:14:22.817Z,2.671
2023-02-27T04:15:22.761Z,2.665
2023-02-27T04:16:22.303Z,2.664
2023-02-27T04:17:22.715Z,2.642
2023-02-27T04:18:22.458Z,2.654
2023-02-27T04:19:22.577Z,2.648
2023-02-27T04:20:22.769Z,2.619
2023-02-27T04:21:22.327Z,2.644
2023-02-27T04:22:21.832Z,2.631
2023-02-27T04:23:21.533Z,2.648
2023-02-27T04:24:22.036Z,2.631
2023-02-27T04:25:21.963Z,2.637
2023-02-27T04:26:22.247Z,2.648
2023-02-27T04:27:22.115Z,2.628
2023-02-27T04:28:22.673Z,2.609
2023-02-27T04:29:22.219Z,2.620
2023-02-27T04:30:23.549Z,2.637
2023-02-27T04:31:23.150Z,2.642
2023-02-27T04:32:23.169Z,2.631
2023-02-27T04:33:22.348Z,2.627
2023-02-27T04:34:22.996Z,2.609
2023-02-27T04:35:22.582Z,2.585
2023-02-27T04:36:22.221Z,2.620
2023-02-27T04:37:22.391Z,2.589
2023-02-27T04:38:22.429Z,2.605
2023-02-27T04:39:27.526Z,2.605
2023-02-27T04:40:23.287Z,2.585
2023-02-27T04:41:27.594Z,2.589
2023-02-27T04:42:22.894Z,2.585
2023-02-27T04:43:22.035Z,2.575
2023-02-27T04:44:22.488Z,2.585
2023-02-27T04:45:22.620Z,2.569
2023-02-27T04:46:21.993Z,2.559
2023-02-27T04:47:22.938Z,2.565
2023-02-27T04:48:22.186Z,2.559
2023-02-27T04:49:23.036Z,2.565
2023-02-27T04:50:23.153Z,2.525
2023-02-27T04:51:22.346Z,2.519
2023-02-27T04:52:22.292Z,2.480
2023-02-27T04:53:37.114Z,2.474
2023-02-27T04:54:22.199Z,2.454
2023-02-27T04:55:22.767Z,2.434
2023-02-27T04:56:23.112Z,2.394
2023-02-27T04:57:22.428Z,2.384
2023-02-27T04:58:24.394Z,2.400
2023-02-27T04:59:22.358Z,2.400
2023-02-27T05:00:24.343Z,2.404
2023-02-27T05:01:23.266Z,2.384
2023-02-27T05:02:23.298Z,2.400
2023-02-27T05:03:22.527Z,2.400
2023-02-27T05:04:22.913Z,2.420
2023-02-27T05:05:23.175Z,2.404
2023-02-27T05:06:22.825Z,2.400
2023-02-27T05:07:41.679Z,2.384
2023-02-27T05:08:22.439Z,2.367
2023-02-27T05:09:22.426Z,2.342
2023-02-27T05:10:24.056Z,2.322
2023-02-27T05:11:41.606Z,2.305
2023-02-27T05:12:22.648Z,2.275
2023-02-27T05:13:41.803Z,2.244
2023-02-27T05:14:22.211Z,2.208
2023-02-27T05:15:42.428Z,2.200
2023-02-27T05:16:23.222Z,2.220
2023-02-27T05:17:22.424Z,2.200
2023-02-27T05:18:22.678Z,2.178
2023-02-27T05:19:44.195Z,2.177
2023-02-27T05:20:22.996Z,2.178
2023-02-27T05:21:22.427Z,2.178
2023-02-27T05:22:23.609Z,2.194
2023-02-27T05:23:22.159Z,2.165
2023-02-27T05:24:22.593Z,2.115
2023-02-27T05:25:23.007Z,2.131
2023-02-27T05:26:22.794Z,2.177
2023-02-27T05:28:24.589Z,2.148
2023-02-27T05:29:22.555Z,2.171
2023-02-27T05:30:22.960Z,2.148
2023-02-27T05:32:24.811Z,2.154
2023-02-27T05:33:22.821Z,2.148
2023-02-27T05:34:23.025Z,2.154
2023-02-27T05:35:23.005Z,2.131
2023-02-27T05:36:22.759Z,2.148
2023-02-27T05:37:22.754Z,2.131
2023-02-27T05:38:23.112Z,2.109
2023-02-27T05:39:22.511Z,2.059
2023-02-27T05:40:23.280Z,2.049
2023-02-27T05:41:23.316Z,2.029
2023-02-27T05:42:23.549Z,2.005
2023-02-27T05:43:22.915Z,2.005
2023-02-27T05:44:22.554Z,2.025
2023-02-27T05:45:23.271Z,1.980
2023-02-27T05:46:22.578Z,1.975
2023-02-27T05:47:22.568Z,1.950
2023-02-27T05:48:22.679Z,1.945
2023-02-27T05:49:22.243Z,1.940
2023-02-27T05:50:23.263Z,1.924
2023-02-27T05:51:22.779Z,1.889
2023-02-27T05:52:23.047Z,1.879
2023-02-27T05:53:22.643Z,1.878
2023-02-27T05:54:22.551Z,1.904
2023-02-27T05:55:23.208Z,1.914
2023-02-27T05:56:22.751Z,1.884
2023-02-27T05:57:23.033Z,1.894
2023-02-27T05:58:22.438Z,1.894
2023-02-27T05:59:22.727Z,1.904
2023-02-27T06:00:23.826Z,1.904
2023-02-27T06:01:22.878Z,1.899
2023-02-27T06:02:23.225Z,1.868
2023-02-27T06:03:23.941Z,1.868
2023-02-27T06:04:22.944Z,1.855
2023-02-27T06:05:23.268Z,1.845
2023-02-27T06:06:23.551Z,1.832
2023-02-27T06:07:23.279Z,1.815
2023-02-27T06:08:22.912Z,1.827
2023-02-27T06:09:23.412Z,1.861
2023-02-27T06:10:23.252Z,1.879
2023-02-27T06:11:23.701Z,1.899
2023-02-27T06:12:23.877Z,1.904
2023-02-27T06:13:23.782Z,1.899
2023-02-27T06:14:23.839Z,1.899
2023-02-27T06:15:23.197Z,1.909
2023-02-27T06:16:23.145Z,1.919
2023-02-27T06:17:22.855Z,1.919
2023-02-27T06:18:23.396Z,1.914
2023-02-27T06:19:23.895Z,1.894
2023-02-27T06:20:23.224Z,1.909
2023-02-27T06:21:23.263Z,1.924
2023-02-27T06:22:22.975Z,1.929
2023-02-27T06:23:23.065Z,1.904
2023-02-27T06:24:23.143Z,1.909
2023-02-27T06:25:23.574Z,1.889
2023-02-27T06:26:23.366Z,1.871
2023-02-27T06:27:23.339Z,1.873
2023-02-27T06:28:23.865Z,1.858
2023-02-27T06:29:23.202Z,1.850
2023-02-27T06:30:24.159Z,1.853
2023-02-27T06:31:23.281Z,1.858
2023-02-27T06:32:22.945Z,1.848
2023-02-27T06:33:23.170Z,1.876
2023-02-27T06:34:23.196Z,1.890
2023-02-27T06:35:23.266Z,1.855
2023-02-27T06:36:23.134Z,1.874
2023-02-27T06:37:22.652Z,1.889
2023-02-27T06:38:22.979Z,1.883
2023-02-27T06:39:23.932Z,1.899
2023-02-27T06:40:22.980Z,1.924
2023-02-27T06:41:23.084Z,1.945
2023-02-27T06:42:22.651Z,1.965
2023-02-27T06:43:22.480Z,1.975
2023-02-27T06:44:22.334Z,1.960
2023-02-27T06:45:23.515Z,1.955
2023-02-27T06:46:22.436Z,1.970
2023-02-27T06:47:23.297Z,1.970
2023-02-27T06:48:22.925Z,1.975
2023-02-27T06:49:22.660Z,1.975
2023-02-27T06:50:23.766Z,1.990
2023-02-27T06:51:23.254Z,2.035
2023-02-27T06:52:22.727Z,2.049
2023-02-27T06:53:22.431Z,2.059
2023-02-27T06:54:22.401Z,2.065
2023-02-27T06:55:23.043Z,2.065
2023-02-27T06:56:22.629Z,2.079
2023-02-27T06:57:23.398Z,2.089
2023-02-27T06:58:28.343Z,2.079
2023-02-27T06:59:23.082Z,2.115
2023-02-27T07:00:25.925Z,2.120
2023-02-27T07:01:24.107Z,2.154
2023-02-27T07:02:28.023Z,2.165
2023-02-27T07:03:23.471Z,2.171
2023-02-27T07:04:23.450Z,2.214
2023-02-27T07:05:24.859Z,2.240
2023-02-27T07:07:33.199Z,2.265
2023-02-27T07:07:33.907Z,2.279
2023-02-27T07:08:23.992Z,2.279
2023-02-27T07:09:23.254Z,2.259
2023-02-27T07:10:23.743Z,2.25
2023-02-27T07:11:23.814Z,2.285
2023-02-27T07:12:23.237Z,2.338
2023-02-27T07:13:23.485Z,2.345
2023-02-27T07:14:23.346Z,2.338
2023-02-27T07:15:24.603Z,2.361
2023-02-27T07:16:23.241Z,2.400
2023-02-27T07:17:22.840Z,2.414
2023-02-27T07:18:23.233Z,2.444
2023-02-27T07:19:22.834Z,2.454
2023-02-27T07:20:23.397Z,2.509
2023-02-27T07:21:23.585Z,2.525
2023-02-27T07:22:23.192Z,2.569
2023-02-27T07:23:22.673Z,2.579
2023-02-27T07:24:23.014Z,2.599
2023-02-27T07:25:22.988Z,2.648
2023-02-27T07:26:23.552Z,2.673
2023-02-27T07:27:23.018Z,2.734
2023-02-27T07:28:22.693Z,2.775
2023-02-27T07:29:23.428Z,2.779
2023-02-27T07:30:23.599Z,2.826
2023-02-27T07:31:23.158Z,2.880
2023-02-27T07:32:23.426Z,2.898
2023-02-27T07:33:23.220Z,2.924
2023-02-27T07:34:22.886Z,2.964
2023-02-27T07:35:24.082Z,3.005
2023-02-27T07:36:42.258Z,3.049
2023-02-27T07:37:23.205Z,3.059
2023-02-27T07:38:22.733Z,3.105
2023-02-27T07:39:23.633Z,3.154
2023-02-27T07:40:23.289Z,3.165
2023-02-27T07:41:30.428Z,3.142
2023-02-27T07:42:23.394Z,3.165
2023-02-27T07:43:23.177Z,3.210
2023-02-27T07:44:23.778Z,3.25
2023-02-27T07:45:23.951Z,3.289
2023-02-27T07:46:23.140Z,3.349
2023-02-27T07:47:23.513Z,3.400
2023-02-27T07:48:22.959Z,3.444
2023-02-27T07:49:23.102Z,3.503
2023-02-27T07:50:23.341Z,3.565
2023-02-27T07:51:23.067Z,3.609
2023-02-27T07:52:23.816Z,3.667
2023-02-27T07:53:23.170Z,3.744
2023-02-27T07:54:23.769Z,3.775
2023-02-27T07:55:23.278Z,3.845
2023-02-27T07:56:23.001Z,3.884
2023-02-27T07:57:23.223Z,3.954
2023-02-27T07:58:23.480Z,4
2023-02-27T07:59:23.805Z,4.070
2023-02-27T08:01:27.188Z,4.192
2023-02-27T08:02:23.438Z,4.244
2023-02-27T08:03:23.193Z,4.289
2023-02-27T08:04:23.154Z,4.334
2023-02-27T08:05:23.102Z,4.400
2023-02-27T08:06:22.656Z,4.454
2023-02-27T08:07:22.932Z,4.510
2023-02-27T08:08:22.854Z,4.574
2023-02-27T08:09:23.561Z,4.631
2023-02-27T08:10:23.425Z,4.698
2023-02-27T08:11:22.867Z,4.730
2023-02-27T08:13:55.673Z,4.873
2023-02-27T08:14:34.194Z,4.940
2023-02-27T08:15:23.475Z,5.034
2023-02-27T08:16:22.908Z,5.090
2023-02-27T08:17:23.402Z,5.155
2023-02-27T08:18:23.165Z,5.224
2023-02-27T08:19:23.314Z,5.310
2023-02-27T08:20:23.135Z,5.344
2023-02-27T08:21:22.706Z,5.428
2023-02-27T08:22:23.334Z,5.530
2023-02-27T08:23:22.964Z,5.559
2023-02-27T08:24:23.336Z,5.570
2023-02-27T08:25:23.186Z,5.909
2023-02-27T08:26:23.123Z,5.899
2023-02-27T08:27:23.601Z,5.848
2023-02-27T08:28:22.817Z,5.929
2023-02-27T08:29:23.879Z,5.844
2023-02-27T08:30:28.029Z,5.855
2023-02-27T08:31:23.405Z,5.861
2023-02-27T08:32:23.890Z,5.883
2023-02-27T08:33:23.528Z,5.954
2023-02-27T08:34:23.708Z,5.980
2023-02-27T08:35:23.952Z,6.014
2023-02-27T08:36:23.264Z,6.019
2023-02-27T08:37:23.296Z,6.094
2023-02-27T08:38:26.013Z,6.138
2023-02-27T08:39:22.758Z,6.143
2023-02-27T08:40:23.912Z,6.25
2023-02-27T08:41:23.397Z,6.280
2023-02-27T08:42:23.699Z,6.344
2023-02-27T08:43:23.183Z,6.429
2023-02-27T08:44:22.951Z,6.469
2023-02-27T08:45:23.476Z,6.460
2023-02-27T08:46:22.981Z,6.629
2023-02-27T08:47:23.222Z,6.715
2023-02-27T08:48:23.643Z,6.703
2023-02-27T08:49:22.309Z,6.689
2023-02-27T08:50:24.276Z,6.699
2023-02-27T08:51:22.663Z,6.719
2023-02-27T08:52:24.936Z,6.693
2023-02-27T08:53:23.412Z,6.689
2023-02-27T08:54:23.008Z,6.693
2023-02-27T08:55:22.714Z,6.739
2023-02-27T08:56:23.131Z,6.894
2023-02-27T08:57:23.506Z,6.840
2023-02-27T08:58:22.638Z,6.769
2023-02-27T08:59:23.445Z,6.730
2023-02-27T09:00:24.880Z,6.730
2023-02-27T09:01:23.394Z,6.764
2023-02-27T09:02:23.619Z,7.039
2023-02-27T09:03:23.602Z,7
2023-02-27T09:04:24.119Z,6.949
2023-02-27T09:05:22.778Z,6.879
2023-02-27T09:06:25.088Z,6.890
2023-02-27T09:07:23.577Z,6.869
2023-02-27T09:08:23.247Z,6.925
2023-02-27T09:09:23.693Z,6.900
2023-02-27T09:10:23.210Z,6.868
2023-02-27T09:11:23.183Z,6.905
2023-02-27T09:12:22.990Z,6.940
2023-02-27T09:13:22.694Z,6.994
2023-02-27T09:14:23.046Z,7.025
2023-02-27T09:15:23.069Z,7.127
2023-02-27T09:16:22.425Z,7.327
2023-02-27T09:17:22.184Z,7.315
2023-02-27T09:18:22.490Z,7.315
2023-02-27T09:19:22.544Z,7.269
2023-02-27T09:20:22.599Z,7.260
2023-02-27T09:21:22.984Z,7.360
2023-02-27T09:22:22.527Z,7.434
2023-02-27T09:23:23.443Z,7.454
2023-02-27T09:24:23.309Z,7.570
2023-02-27T09:25:22.854Z,7.574
2023-02-27T09:26:35.726Z,7.489
2023-02-27T09:27:23.052Z,7.539
2023-02-27T09:28:23.087Z,7.559
2023-02-27T09:29:22.602Z,7.570
2023-02-27T09:30:22.550Z,7.585
2023-02-27T09:31:22.608Z,7.683
2023-02-27T09:32:22.825Z,7.710
2023-02-27T09:33:23.291Z,7.724
2023-02-27T09:34:22.666Z,7.75
2023-02-27T09:35:23.733Z,7.755
2023-02-27T09:36:22.993Z,7.784
2023-02-27T09:37:23.109Z,7.873
2023-02-27T09:38:23.272Z,7.920
2023-02-27T09:39:22.440Z,7.914
2023-02-27T09:40:23.423Z,7.849
2023-02-27T09:41:22.434Z,7.866
2023-02-27T09:42:23.402Z,7.900
2023-02-27T09:43:22.847Z,7.985
2023-02-27T09:44:33.441Z,8.015
2023-02-27T09:45:22.819Z,8.095
2023-02-27T09:46:22.482Z,8.079
2023-02-27T09:47:23.065Z,8.064
2023-02-27T09:48:22.533Z,8.045
2023-02-27T09:49:22.524Z,8.100
2023-02-27T09:50:23.228Z,8.137
2023-02-27T09:51:22.763Z,8.204
2023-02-27T09:52:23.089Z,8.289
2023-02-27T09:53:22.588Z,8.215
2023-02-27T09:54:23.151Z,8.310
2023-02-27T09:55:23.135Z,8.289
2023-02-27T09:56:23.040Z,8.413
2023-02-27T09:57:23.398Z,8.614
2023-02-27T09:58:22.402Z,8.704
2023-02-27T09:59:23.471Z,8.579
2023-02-27T10:00:24.492Z,8.465
2023-02-27T10:01:23.242Z,8.449
2023-02-27T10:02:22.896Z,8.494
2023-02-27T10:03:22.754Z,8.649
2023-02-27T10:04:23.532Z,8.682
2023-02-27T10:05:23.183Z,8.75
2023-02-27T10:06:23.048Z,8.918
2023-02-27T10:07:42.220Z,8.843
2023-02-27T10:08:22.781Z,8.850
2023-02-27T10:09:23.155Z,8.822
2023-02-27T10:10:23.135Z,8.885
2023-02-27T10:11:23.488Z,9.050
2023-02-27T10:12:23.428Z,9
2023-02-27T10:13:23.440Z,8.925
2023-02-27T10:14:22.901Z,8.935
2023-02-27T10:15:23.569Z,9.029
2023-02-27T10:16:23.629Z,8.994
2023-02-27T10:17:23.136Z,8.918
2023-02-27T10:18:27.643Z,9
2023-02-27T10:19:22.643Z,9.206
2023-02-27T10:20:22.622Z,9.293
2023-02-27T10:21:22.980Z,9.390
2023-02-27T10:22:22.675Z,9.322
2023-02-27T10:23:23.518Z,9.137
2023-02-27T10:24:22.556Z,9.038
2023-02-27T10:25:30.266Z,9.029
2023-02-27T10:26:24.120Z,8.963
2023-02-27T10:27:23.057Z,9.010
2023-02-27T10:28:23.081Z,9.010
2023-02-27T10:29:22.498Z,8.954
2023-02-27T10:30:29.236Z,8.989
2023-02-27T10:31:22.822Z,9.010
2023-02-27T10:32:22.777Z,9.034
2023-02-27T10:33:23.222Z,9.015
2023-02-27T10:34:22.862Z,9.024
2023-02-27T10:35:23.054Z,9.244
2023-02-27T10:36:32.951Z,9.354
2023-02-27T10:37:23.257Z,9.404
2023-02-27T10:38:23.255Z,9.255
2023-02-27T10:39:22.289Z,9.255
2023-02-27T10:40:22.898Z,9.260
2023-02-27T10:41:23.449Z,9.265
2023-02-27T10:42:22.549Z,9.371
2023-02-27T10:43:22.931Z,9.454
2023-02-27T10:44:22.559Z,9.439
2023-02-27T10:45:23.714Z,9.409
2023-02-27T10:46:22.150Z,9.371
2023-02-27T10:47:22.988Z,9.550
2023-02-27T10:48:23.013Z,9.725
2023-02-27T10:49:22.661Z,9.755
2023-02-27T10:50:23.945Z,9.631
2023-02-27T10:51:22.703Z,9.539
2023-02-27T10:52:23.753Z,9.439
2023-02-27T10:53:22.832Z,9.444
2023-02-27T10:54:22.657Z,9.718
2023-02-27T10:55:23.336Z,9.670
2023-02-27T10:56:22.949Z,9.574
2023-02-27T10:57:23.154Z,9.614
2023-02-27T10:58:23.242Z,9.595
2023-02-27T10:59:23.331Z,9.680
2023-02-27T11:00:26.023Z,9.75
2023-02-27T11:01:23.469Z,9.729
2023-02-27T11:02:23.772Z,9.692
2023-02-27T11:03:24.499Z,9.659
2023-02-27T11:04:22.924Z,9.802
2023-02-27T11:05:22.773Z,10.02
2023-02-27T11:06:23.281Z,9.934
2023-02-27T11:07:22.113Z,9.894
2023-02-27T11:08:22.574Z,9.979
2023-02-27T11:09:22.936Z,10.04
2023-02-27T11:10:23.110Z,10.10
2023-02-27T11:11:22.322Z,10.02
2023-02-27T11:12:22.501Z,10.02
2023-02-27T11:13:22.562Z,10.02
2023-02-27T11:14:22.684Z,10.03
2023-02-27T11:15:22.996Z,10.05
2023-02-27T11:16:23.207Z,10.02
2023-02-27T11:17:23.330Z,10.03
2023-02-27T11:18:22.855Z,10
2023-02-27T11:19:23.402Z,10.00
2023-02-27T11:20:23.426Z,10.06
2023-02-27T11:21:22.884Z,10.19
2023-02-27T11:22:23.223Z,10.25
2023-02-27T11:23:22.615Z,10.29
2023-02-27T11:24:22.501Z,10.33
2023-02-27T11:25:23.211Z,10.39
2023-02-27T11:26:22.248Z,10.46
2023-02-27T11:27:23.286Z,10.55
2023-02-27T11:28:23.360Z,10.60
2023-02-27T11:29:23.308Z,10.68
2023-02-27T11:30:26.442Z,10.63
2023-02-27T11:31:22.896Z,10.56
2023-02-27T11:32:24.148Z,10.55
2023-02-27T11:33:22.877Z,10.59
2023-02-27T11:34:23.614Z,10.67
2023-02-27T11:35:22.887Z,10.69
2023-02-27T11:36:21.812Z,10.67
2023-02-27T11:37:23.268Z,10.62
2023-02-27T11:38:23.529Z,10.67
2023-02-27T11:39:23.248Z,10.75
2023-02-27T11:40:22.801Z,10.78
2023-02-27T11:41:23.690Z,10.84
2023-02-27T11:42:23.220Z,10.96
2023-02-27T11:43:22.432Z,11.02
2023-02-27T11:44:34.040Z,11.04
2023-02-27T11:46:04.540Z,11.14
2023-02-27T11:46:41.181Z,11.26
2023-02-27T11:47:23.393Z,11.22
2023-02-27T11:48:22.880Z,11.20
2023-02-27T11:49:22.747Z,11.24
2023-02-27T11:50:28.105Z,11.32
2023-02-27T11:51:23.095Z,11.31
2023-02-27T11:52:27.852Z,11.30
2023-02-27T11:53:22.533Z,11.30
2023-02-27T11:54:27.848Z,11.30
2023-02-27T11:55:23.546Z,11.35
2023-02-27T11:56:22.628Z,11.35
2023-02-27T11:57:22.568Z,11.30
2023-02-27T11:58:22.594Z,11.32
2023-02-27T11:59:22.882Z,11.39
2023-02-27T12:00:24.361Z,11.45
2023-02-27T12:01:22.849Z,11.42
2023-02-27T12:02:30.885Z,11.43
2023-02-27T12:03:23.139Z,11.43
2023-02-27T12:04:31.534Z,11.39
2023-02-27T12:05:23.008Z,11.45
2023-02-27T12:06:23.115Z,11.45
2023-02-27T12:07:23.285Z,11.47
2023-02-27T12:08:22.850Z,11.59
2023-02-27T12:09:22.799Z,11.68
2023-02-27T12:10:23.393Z,11.87
2023-02-27T12:11:23.046Z,11.72
2023-02-27T12:12:22.403Z,11.69
2023-02-27T12:13:23.171Z,11.51
2023-02-27T12:14:23.023Z,11.32
2023-02-27T12:15:22.917Z,11.27
2023-02-27T12:16:36.854Z,11.20
2023-02-27T12:17:23.190Z,11.21
2023-02-27T12:18:22.759Z,11.43
2023-02-27T12:19:22.514Z,11.43
2023-02-27T12:20:23.260Z,11.32
2023-02-27T12:21:22.675Z,11.21
2023-02-27T12:22:22.814Z,11.56
2023-02-27T12:23:23.008Z,11.59
2023-02-27T12:24:23.156Z,11.56
2023-02-27T12:25:23.013Z,11.48
2023-02-27T12:26:22.730Z,11.33
2023-02-27T12:27:23.791Z,11.22
2023-02-27T12:28:22.319Z,11.26
2023-02-27T12:29:22.801Z,11.25
2023-02-27T12:30:22.777Z,11.23
2023-02-27T12:31:23.643Z,11.21
2023-02-27T12:32:22.812Z,11.14
2023-02-27T12:33:22.408Z,11.14
2023-02-27T12:34:23.581Z,11.20
2023-02-27T12:35:22.842Z,11.30
2023-02-27T12:36:23.348Z,11.29
2023-02-27T12:37:22.800Z,11.32
2023-02-27T12:38:23.309Z,11.31
2023-02-27T12:39:23.002Z,11.38
2023-02-27T12:40:23.253Z,11.43
2023-02-27T12:41:23.620Z,11.43
2023-02-27T12:42:22.983Z,11.46
2023-02-27T12:43:22.904Z,11.52
2023-02-27T12:44:22.208Z,11.56
2023-02-27T12:45:23.062Z,11.64
2023-02-27T12:46:23.137Z,11.70
2023-02-27T12:47:22.614Z,11.72
2023-02-27T12:48:22.709Z,11.75
2023-02-27T12:49:22.572Z,11.88
2023-02-27T12:50:22.993Z,11.94
2023-02-27T12:51:23.661Z,11.99
2023-02-27T12:52:23.148Z,12.00
2023-02-27T12:53:22.856Z,12.02
2023-02-27T12:54:22.962Z,12.06
2023-02-27T12:55:23.139Z,12.31
2023-02-27T12:56:24.018Z,12.52
2023-02-27T12:57:23.025Z,12.31